< < Back
Terminal Aerodrome Forecast


Current Version              Previous Versions:   1  2  3  4  5  6  7  8  9  

Terminal Aerodrome Forecast

762
FTUS42 KGSP 281120
TAFAND
TAF
KAND 281120Z 2812/2912 06005KT P6SM SCT250
     FM281600 06008KT P6SM SCT150
     FM281800 06008KT P6SM SCT040
     FM290500 07005KT P6SM FEW200
     FM290900 00000KT P6SM SCT045=

Latest METAR

545
SAUS70 KWBC 290500 RRC
MTRAND
METAR KAND 290456Z AUTO 35005KT 10SM CLR 24/18 A3015 RMK AO2 SLP198
T02390178 403330233


USA.gov is the U.S. government's official web portal to all federal, state and local government web resources and services.